Time,TemperatureF,DewpointF,PressureIn,WindDirection,WindDirectionDegrees,WindSpeedMPH,WindSpeedGustMPH,Humidity,HourlyPrecipIn,Conditions,Clouds,dailyrainin,SolarRadiationWatts/m^2,SoftwareType,DateUTC
2013-05-09 00:08:00,56.9,51.0,30.00,North,355,3.0,-999.0,80,-99.99,,,0.00,0,weatherlink.com 1.10,2013-05-09 04:08:00,
2013-05-09 00:23:00,56.9,51.0,30.00,North,351,6.0,-999.0,80,-99.99,,,0.00,0,weatherlink.com 1.10,2013-05-09 04:23:00,
2013-05-09 00:38:00,56.7,51.0,29.99,NNW,340,6.0,-999.0,80,-99.99,,,0.00,0,weatherlink.com 1.10,2013-05-09 04:38:00,
2013-05-09 00:53:00,56.5,50.0,29.99,NNW,327,5.0,-999.0,79,-99.99,,,0.00,0,weatherlink.com 1.10,2013-05-09 04:53:00,
2013-05-09 01:08:00,56.4,50.0,30.00,NW,321,6.0,-999.0,79,-99.99,,,0.00,0,weatherlink.com 1.10,2013-05-09 05:08:00,
2013-05-09 01:23:00,56.2,50.0,29.99,NW,319,3.0,-999.0,79,-99.99,,,0.00,0,weatherlink.com 1.10,2013-05-09 05:23:00,
2013-05-09 01:38:00,56.3,50.0,29.99,NW,319,3.0,-999.0,79,-99.99,,,0.00,0,weatherlink.com 1.10,2013-05-09 05:38:00,
2013-05-09 01:53:00,56.0,50.0,29.98,NW,319,5.0,-999.0,79,-99.99,,,0.00,0,weatherlink.com 1.10,2013-05-09 05:53:00,
2013-05-09 02:08:00,55.8,50.0,29.98,NW,318,6.0,-999.0,80,-99.99,,,0.00,0,weatherlink.com 1.10,2013-05-09 06:08:00,
2013-05-09 02:23:00,55.7,50.0,29.98,NW,319,5.0,-999.0,80,-99.99,,,0.00,0,weatherlink.com 1.10,2013-05-09 06:23:00,
2013-05-09 02:38:00,55.7,50.0,29.97,NW,319,4.0,-999.0,80,-99.99,,,0.00,0,weatherlink.com 1.10,2013-05-09 06:38:00,
2013-05-09 02:53:00,55.7,49.0,29.97,NW,319,4.0,-999.0,79,-99.99,,,0.00,0,weatherlink.com 1.10,2013-05-09 06:53:00,
2013-05-09 03:08:00,55.7,49.0,29.97,NW,319,3.0,-999.0,78,-99.99,,,0.00,0,weatherlink.com 1.10,2013-05-09 07:08:00,
2013-05-09 03:23:00,55.8,49.0,29.97,NW,319,0.0,-999.0,78,-99.99,,,0.00,0,weatherlink.com 1.10,2013-05-09 07:23:00,
2013-05-09 03:38:00,55.8,49.0,29.96,NW,325,1.0,-999.0,77,-99.99,,,0.00,0,weatherlink.com 1.10,2013-05-09 07:38:00,
2013-05-09 03:53:00,55.7,49.0,29.96,NW,325,9.0,-999.0,77,-99.99,,,0.00,0,weatherlink.com 1.10,2013-05-09 07:53:00,
2013-05-09 04:08:00,55.5,49.0,29.96,NNW,333,5.0,-999.0,78,-99.99,,,0.00,0,weatherlink.com 1.10,2013-05-09 08:08:00,
2013-05-09 04:23:00,55.3,49.0,29.96,NNW,333,3.0,-999.0,78,-99.99,,,0.00,0,weatherlink.com 1.10,2013-05-09 08:23:00,
2013-05-09 04:38:00,55.1,49.0,29.96,NNW,348,4.0,-999.0,79,-99.99,,,0.00,0,weatherlink.com 1.10,2013-05-09 08:38:00,
2013-05-09 04:53:00,55.0,48.0,29.96,NNW,345,10.0,-999.0,78,-99.99,,,0.00,0,weatherlink.com 1.10,2013-05-09 08:53:00,
2013-05-09 05:08:00,55.0,48.0,29.96,NNW,327,3.0,-999.0,78,-99.99,,,0.00,0,weatherlink.com 1.10,2013-05-09 09:08:00,
2013-05-09 05:23:00,55.2,48.0,29.96,NNE,22,9.0,-999.0,77,-99.99,,,0.00,0,weatherlink.com 1.10,2013-05-09 09:23:00,
2013-05-09 05:38:00,55.4,48.0,29.97,NNW,333,6.0,-999.0,77,-99.99,,,0.00,0,weatherlink.com 1.10,2013-05-09 09:38:00,
2013-05-09 05:53:00,55.4,48.0,29.98,NNW,336,3.0,-999.0,77,-99.99,,,0.00,0,weatherlink.com 1.10,2013-05-09 09:53:00,
2013-05-09 06:08:00,55.3,49.0,29.98,NNW,333,2.0,-999.0,78,-99.99,,,0.00,0,weatherlink.com 1.10,2013-05-09 10:08:00,
2013-05-09 06:23:00,55.2,48.0,30.00,NNW,334,4.0,-999.0,78,-99.99,,,0.00,0,weatherlink.com 1.10,2013-05-09 10:23:00,
2013-05-09 06:38:00,55.1,48.0,30.00,NNW,348,5.0,-999.0,78,-99.99,,,0.00,12,weatherlink.com 1.10,2013-05-09 10:38:00,
2013-05-09 06:53:00,55.4,48.0,30.01,NNW,327,5.0,-999.0,77,-99.99,,,0.00,40,weatherlink.com 1.10,2013-05-09 10:53:00,
2013-05-09 07:08:00,56.1,49.0,30.01,NNW,330,2.0,-999.0,76,-99.99,,,0.00,91,weatherlink.com 1.10,2013-05-09 11:08:00,
2013-05-09 07:23:00,56.8,50.0,30.02,North,351,1.0,-999.0,77,-99.99,,,0.00,132,weatherlink.com 1.10,2013-05-09 11:23:00,
2013-05-09 07:38:00,57.6,49.0,30.02,North,355,4.0,-999.0,73,-99.99,,,0.00,67,weatherlink.com 1.10,2013-05-09 11:38:00,
2013-05-09 07:53:00,57.9,49.0,30.02,NW,319,7.0,-999.0,72,-99.99,,,0.00,104,weatherlink.com 1.10,2013-05-09 11:53:00,
2013-05-09 08:08:00,58.7,49.0,30.02,NNW,329,7.0,-999.0,70,-99.99,,,0.00,132,weatherlink.com 1.10,2013-05-09 12:08:00,
2013-05-09 08:23:00,59.8,50.0,30.04,NW,319,4.0,-999.0,70,-99.99,,,0.00,132,weatherlink.com 1.10,2013-05-09 12:23:00,
2013-05-09 08:38:00,60.3,50.0,30.04,NW,307,12.0,-999.0,68,-99.99,,,0.00,134,weatherlink.com 1.10,2013-05-09 12:38:00,
2013-05-09 08:53:00,60.5,50.0,30.04,NNW,342,8.0,-999.0,69,-99.99,,,0.00,123,weatherlink.com 1.10,2013-05-09 12:53:00,
2013-05-09 09:08:00,60.5,49.0,30.04,North,355,4.0,-999.0,67,-99.99,,,0.00,251,weatherlink.com 1.10,2013-05-09 13:08:00,
2013-05-09 09:52:00,66.5,53.0,30.04,North,355,3.0,-999.0,62,-99.99,,,0.00,571,weatherlink.com 1.10,2013-05-09 13:52:00,
2013-05-09 10:09:00,68.5,53.0,30.04,North,355,2.0,-999.0,58,-99.99,,,0.00,610,weatherlink.com 1.10,2013-05-09 14:09:00,
2013-05-09 10:23:00,70.1,54.0,30.03,North,355,2.0,-999.0,57,-99.99,,,0.00,640,weatherlink.com 1.10,2013-05-09 14:23:00,
2013-05-09 10:38:00,71.1,54.0,30.03,NNW,338,6.0,-999.0,56,-99.99,,,0.00,684,weatherlink.com 1.10,2013-05-09 14:38:00,
2013-05-09 10:53:00,71.9,53.0,30.03,NNW,346,2.0,-999.0,52,-99.99,,,0.00,712,weatherlink.com 1.10,2013-05-09 14:53:00,
2013-05-09 11:08:00,73.1,53.0,30.03,NW,309,2.0,-999.0,50,-99.99,,,0.00,721,weatherlink.com 1.10,2013-05-09 15:08:00,
2013-05-09 11:23:00,74.1,54.0,30.03,NW,322,4.0,-999.0,49,-99.99,,,0.00,756,weatherlink.com 1.10,2013-05-09 15:23:00,
2013-05-09 11:38:00,75.0,53.0,30.02,NW,321,3.0,-999.0,47,-99.99,,,0.00,793,weatherlink.com 1.10,2013-05-09 15:38:00,
2013-05-09 11:53:00,75.7,54.0,30.02,North,349,1.0,-999.0,47,-99.99,,,0.00,821,weatherlink.com 1.10,2013-05-09 15:53:00,
2013-05-09 12:08:00,76.6,55.0,30.02,NNW,341,1.0,-999.0,48,-99.99,,,0.00,893,weatherlink.com 1.10,2013-05-09 16:08:00,
2013-05-09 12:23:00,76.8,56.0,30.03,NNW,340,3.0,-999.0,48,-99.99,,,0.00,253,weatherlink.com 1.10,2013-05-09 16:23:00,
2013-05-09 12:38:00,73.2,54.0,30.05,NNW,340,2.0,-999.0,52,-99.99,,,0.00,220,weatherlink.com 1.10,2013-05-09 16:38:00,
2013-05-09 12:53:00,72.5,56.0,30.04,NNW,338,1.0,-999.0,57,-99.99,,,0.00,606,weatherlink.com 1.10,2013-05-09 16:53:00,
2013-05-09 13:08:00,72.6,56.0,30.04,WSW,257,6.0,-999.0,57,-99.99,,,0.00,1028,weatherlink.com 1.10,2013-05-09 17:08:00,
2013-05-09 13:23:00,71.6,57.0,30.03,SSE,154,4.0,-999.0,60,-99.99,,,0.00,355,weatherlink.com 1.10,2013-05-09 17:23:00,
2013-05-09 13:38:00,69.9,54.0,30.05,SSE,153,7.0,-999.0,58,-99.99,,,0.00,297,weatherlink.com 1.10,2013-05-09 17:38:00,
2013-05-09 13:53:00,70.0,55.0,30.05,SSE,157,0.0,-999.0,60,-99.99,,,0.00,316,weatherlink.com 1.10,2013-05-09 17:53:00,
2013-05-09 14:08:00,72.6,56.0,30.03,SW,223,5.0,-999.0,56,-99.99,,,0.00,951,weatherlink.com 1.10,2013-05-09 18:08:00,
2013-05-09 14:23:00,71.5,54.0,30.04,SSE,148,9.0,-999.0,55,-99.99,,,0.00,209,weatherlink.com 1.10,2013-05-09 18:23:00,
2013-05-09 14:38:00,69.0,55.0,30.04,SSE,165,0.0,-999.0,61,-99.99,,,0.00,285,weatherlink.com 1.10,2013-05-09 18:38:00,
2013-05-09 14:53:00,70.8,56.0,30.03,South,172,2.0,-999.0,60,-99.99,,,0.00,911,weatherlink.com 1.10,2013-05-09 18:53:00,
2013-05-09 15:08:00,71.5,54.0,30.02,SE,138,4.0,-999.0,55,-99.99,,,0.00,587,weatherlink.com 1.10,2013-05-09 19:08:00,
2013-05-09 15:23:00,70.1,54.0,30.03,SE,130,6.0,-999.0,56,-99.99,,,0.00,336,weatherlink.com 1.10,2013-05-09 19:23:00,
2013-05-09 15:38:00,68.6,53.0,30.02,SE,134,5.0,-999.0,58,-99.99,,,0.00,320,weatherlink.com 1.10,2013-05-09 19:38:00,
2013-05-09 15:53:00,70.3,54.0,30.01,SE,144,4.0,-999.0,56,-99.99,,,0.00,830,weatherlink.com 1.10,2013-05-09 19:53:00,
2013-05-09 16:08:00,69.2,53.0,30.01,SE,137,5.0,-999.0,57,-99.99,,,0.00,139,weatherlink.com 1.10,2013-05-09 20:08:00,
2013-05-09 16:23:00,68.8,55.0,30.02,SE,137,0.0,-999.0,62,-99.99,,,0.00,139,weatherlink.com 1.10,2013-05-09 20:23:00,
2013-05-09 16:38:00,65.2,59.0,30.02,ENE,57,6.0,-999.0,79,-99.99,,,0.14,74,weatherlink.com 1.10,2013-05-09 20:38:00,
2013-05-09 16:53:00,61.8,58.0,30.02,North,360,5.0,-999.0,86,-99.99,,,0.45,53,weatherlink.com 1.10,2013-05-09 20:53:00,
2013-05-09 17:08:00,60.7,56.0,30.03,ENE,68,8.0,-999.0,84,-99.99,,,0.46,97,weatherlink.com 1.10,2013-05-09 21:08:00,
2013-05-09 17:23:00,62.5,55.0,30.04,ESE,109,1.0,-999.0,76,-99.99,,,0.46,197,weatherlink.com 1.10,2013-05-09 21:23:00,
2013-05-09 17:38:00,63.7,55.0,30.03,ESE,121,7.0,-999.0,73,-99.99,,,0.46,476,weatherlink.com 1.10,2013-05-09 21:38:00,
2013-05-09 17:53:00,63.2,57.0,30.03,SE,126,7.0,-999.0,80,-99.99,,,0.46,350,weatherlink.com 1.10,2013-05-09 21:53:00,
2013-05-09 18:08:00,62.0,56.0,30.04,SE,132,3.0,-999.0,81,-99.99,,,0.46,107,weatherlink.com 1.10,2013-05-09 22:08:00,
2013-05-09 18:23:00,61.7,56.0,30.03,SE,132,4.0,-999.0,81,-99.99,,,0.46,236,weatherlink.com 1.10,2013-05-09 22:23:00,
2013-05-09 18:38:00,62.1,55.0,30.03,SE,132,2.0,-999.0,78,-99.99,,,0.46,91,weatherlink.com 1.10,2013-05-09 22:38:00,
2013-05-09 18:53:00,62.3,54.0,30.03,SE,132,4.0,-999.0,74,-99.99,,,0.46,49,weatherlink.com 1.10,2013-05-09 22:53:00,
2013-05-09 19:08:00,62.9,54.0,30.02,SE,132,2.0,-999.0,73,-99.99,,,0.46,65,weatherlink.com 1.10,2013-05-09 23:08:00,
2013-05-09 19:23:00,63.4,55.0,30.01,SE,132,2.0,-999.0,73,-99.99,,,0.46,46,weatherlink.com 1.10,2013-05-09 23:23:00,
2013-05-09 19:38:00,63.3,55.0,30.02,SE,132,0.0,-999.0,75,-99.99,,,0.46,26,weatherlink.com 1.10,2013-05-09 23:38:00,
2013-05-09 19:53:00,63.2,55.0,30.02,SE,134,3.0,-999.0,75,-99.99,,,0.46,18,weatherlink.com 1.10,2013-05-09 23:53:00,
2013-05-09 20:08:00,63.2,55.0,30.03,SE,134,1.0,-999.0,75,-99.99,,,0.46,7,weatherlink.com 1.10,2013-05-10 00:08:00,
2013-05-09 20:23:00,63.2,55.0,30.02,SE,134,2.0,-999.0,75,-99.99,,,0.46,0,weatherlink.com 1.10,2013-05-10 00:23:00,
2013-05-09 20:38:00,63.2,54.0,30.02,SE,133,3.0,-999.0,73,-99.99,,,0.46,0,weatherlink.com 1.10,2013-05-10 00:38:00,
2013-05-09 20:53:00,63.1,54.0,30.02,SE,134,0.0,-999.0,73,-99.99,,,0.46,0,weatherlink.com 1.10,2013-05-10 00:53:00,
2013-05-09 21:08:00,62.9,54.0,30.03,SE,134,0.0,-999.0,73,-99.99,,,0.46,0,weatherlink.com 1.10,2013-05-10 01:08:00,
2013-05-09 21:23:00,62.8,54.0,30.01,SE,134,0.0,-999.0,73,-99.99,,,0.46,0,weatherlink.com 1.10,2013-05-10 01:23:00,
2013-05-09 21:38:00,62.8,54.0,30.02,SE,134,2.0,-999.0,73,-99.99,,,0.46,0,weatherlink.com 1.10,2013-05-10 01:38:00,
2013-05-09 21:53:00,62.8,55.0,30.02,SE,134,2.0,-999.0,75,-99.99,,,0.46,0,weatherlink.com 1.10,2013-05-10 01:53:00,
2013-05-09 22:08:00,62.5,55.0,30.03,SE,134,3.0,-999.0,76,-99.99,,,0.46,0,weatherlink.com 1.10,2013-05-10 02:08:00,
2013-05-09 22:23:00,62.6,55.0,30.01,SE,136,3.0,-999.0,76,-99.99,,,0.46,0,weatherlink.com 1.10,2013-05-10 02:23:00,
2013-05-09 22:38:00,62.5,55.0,30.01,SSE,157,3.0,-999.0,76,-99.99,,,0.46,0,weatherlink.com 1.10,2013-05-10 02:38:00,
2013-05-09 22:53:00,62.5,55.0,30.00,South,174,4.0,-999.0,75,-99.99,,,0.46,0,weatherlink.com 1.10,2013-05-10 02:53:00,
2013-05-09 23:08:00,62.8,54.0,30.00,South,173,2.0,-999.0,74,-99.99,,,0.46,0,weatherlink.com 1.10,2013-05-10 03:08:00,
2013-05-09 23:23:00,62.7,55.0,29.99,South,173,0.0,-999.0,75,-99.99,,,0.46,0,weatherlink.com 1.10,2013-05-10 03:23:00,
2013-05-09 23:38:00,62.8,54.0,29.99,South,174,2.0,-999.0,74,-99.99,,,0.46,0,weatherlink.com 1.10,2013-05-10 03:38:00,
2013-05-09 23:53:00,62.7,54.0,29.99,South,174,3.0,-999.0,74,-99.99,,,0.46,0,weatherlink.com 1.10,2013-05-10 03:53:00,